sensor_id;sensor_type;location;lat;lon;timestamp;P1;durP1;ratioP1;P2;durP2;ratioP2
65799;SDS011;52544;48.116;11.660;2022-10-29T00:00:36;13.10;;;2.65;;
65799;SDS011;52544;48.116;11.660;2022-10-29T00:03:02;11.07;;;2.60;;
65799;SDS011;52544;48.116;11.660;2022-10-29T00:05:28;8.95;;;2.53;;
65799;SDS011;52544;48.116;11.660;2022-10-29T00:07:53;4.85;;;2.50;;
65799;SDS011;52544;48.116;11.660;2022-10-29T00:10:18;5.57;;;2.30;;
65799;SDS011;52544;48.116;11.660;2022-10-29T00:12:44;8.98;;;2.45;;
65799;SDS011;52544;48.116;11.660;2022-10-29T00:15:09;8.40;;;2.58;;
65799;SDS011;52544;48.116;11.660;2022-10-29T00:17:35;7.43;;;2.25;;
65799;SDS011;52544;48.116;11.660;2022-10-29T00:20:00;7.10;;;2.67;;
65799;SDS011;52544;48.116;11.660;2022-10-29T00:22:26;7.60;;;2.33;;
65799;SDS011;52544;48.116;11.660;2022-10-29T00:24:51;8.13;;;2.10;;
65799;SDS011;52544;48.116;11.660;2022-10-29T00:27:20;6.40;;;2.35;;
65799;SDS011;52544;48.116;11.660;2022-10-29T00:29:45;11.65;;;2.65;;
65799;SDS011;52544;48.116;11.660;2022-10-29T00:32:10;6.55;;;2.55;;
65799;SDS011;52544;48.116;11.660;2022-10-29T00:34:36;9.95;;;2.42;;
65799;SDS011;52544;48.116;11.660;2022-10-29T00:37:02;7.30;;;2.28;;
65799;SDS011;52544;48.116;11.660;2022-10-29T00:39:30;4.22;;;1.90;;
65799;SDS011;52544;48.116;11.660;2022-10-29T00:41:58;5.88;;;2.28;;
65799;SDS011;52544;48.116;11.660;2022-10-29T00:47:10;10.88;;;2.70;;
65799;SDS011;52544;48.116;11.660;2022-10-29T00:49:43;9.50;;;2.60;;
65799;SDS011;52544;48.116;11.660;2022-10-29T00:52:11;7.97;;;2.50;;
65799;SDS011;52544;48.116;11.660;2022-10-29T00:54:45;8.60;;;3.28;;
65799;SDS011;52544;48.116;11.660;2022-10-29T00:57:23;4.75;;;2.20;;
65799;SDS011;52544;48.116;11.660;2022-10-29T00:59:53;10.25;;;2.35;;
65799;SDS011;52544;48.116;11.660;2022-10-29T01:02:19;9.02;;;2.00;;
65799;SDS011;52544;48.116;11.660;2022-10-29T01:04:46;9.25;;;2.15;;
65799;SDS011;52544;48.116;11.660;2022-10-29T01:07:11;7.50;;;2.50;;
65799;SDS011;52544;48.116;11.660;2022-10-29T01:09:37;6.78;;;2.58;;
65799;SDS011;52544;48.116;11.660;2022-10-29T01:12:17;12.30;;;2.38;;
65799;SDS011;52544;48.116;11.660;2022-10-29T01:31:27;10.95;;;2.72;;
65799;SDS011;52544;48.116;11.660;2022-10-29T01:37:59;13.38;;;2.85;;
65799;SDS011;52544;48.116;11.660;2022-10-29T01:40:23;10.50;;;2.33;;
65799;SDS011;52544;48.116;11.660;2022-10-29T01:43:03;13.05;;;2.40;;
65799;SDS011;52544;48.116;11.660;2022-10-29T01:45:36;5.60;;;2.60;;
65799;SDS011;52544;48.116;11.660;2022-10-29T01:48:18;7.30;;;2.35;;
65799;SDS011;52544;48.116;11.660;2022-10-29T01:50:48;10.10;;;2.42;;
65799;SDS011;52544;48.116;11.660;2022-10-29T01:53:16;9.95;;;2.50;;
65799;SDS011;52544;48.116;11.660;2022-10-29T01:55:43;7.72;;;2.40;;
65799;SDS011;52544;48.116;11.660;2022-10-29T01:58:08;6.05;;;2.65;;
65799;SDS011;52544;48.116;11.660;2022-10-29T02:00:57;9.15;;;2.45;;
65799;SDS011;52544;48.116;11.660;2022-10-29T02:03:42;9.43;;;2.97;;
65799;SDS011;52544;48.116;11.660;2022-10-29T02:09:09;9.50;;;2.67;;
65799;SDS011;52544;48.116;11.660;2022-10-29T02:11:53;9.20;;;2.25;;
65799;SDS011;52544;48.116;11.660;2022-10-29T02:17:02;9.70;;;2.38;;
65799;SDS011;52544;48.116;11.660;2022-10-29T02:19:32;6.40;;;2.40;;
65799;SDS011;52544;48.116;11.660;2022-10-29T02:22:00;7.72;;;2.28;;
65799;SDS011;52544;48.116;11.660;2022-10-29T02:24:25;7.30;;;2.20;;
65799;SDS011;52544;48.116;11.660;2022-10-29T02:26:51;8.75;;;2.78;;
65799;SDS011;52544;48.116;11.660;2022-10-29T02:29:16;5.97;;;2.58;;
65799;SDS011;52544;48.116;11.660;2022-10-29T02:31:42;9.90;;;2.45;;
65799;SDS011;52544;48.116;11.660;2022-10-29T02:34:07;7.40;;;2.28;;
65799;SDS011;52544;48.116;11.660;2022-10-29T02:36:33;5.32;;;2.38;;
65799;SDS011;52544;48.116;11.660;2022-10-29T02:38:58;4.43;;;2.20;;
65799;SDS011;52544;48.116;11.660;2022-10-29T02:41:23;10.23;;;2.65;;
65799;SDS011;52544;48.116;11.660;2022-10-29T02:43:49;5.32;;;2.50;;
65799;SDS011;52544;48.116;11.660;2022-10-29T02:46:15;10.43;;;2.78;;
65799;SDS011;52544;48.116;11.660;2022-10-29T02:48:42;17.25;;;3.00;;
65799;SDS011;52544;48.116;11.660;2022-10-29T02:51:07;5.63;;;2.70;;
65799;SDS011;52544;48.116;11.660;2022-10-29T02:53:33;6.07;;;2.60;;
65799;SDS011;52544;48.116;11.660;2022-10-29T02:55:58;5.05;;;2.25;;
65799;SDS011;52544;48.116;11.660;2022-10-29T02:58:23;4.65;;;2.20;;
65799;SDS011;52544;48.116;11.660;2022-10-29T03:00:49;6.32;;;2.42;;
65799;SDS011;52544;48.116;11.660;2022-10-29T03:03:15;6.55;;;2.22;;
65799;SDS011;52544;48.116;11.660;2022-10-29T03:05:41;7.60;;;2.45;;
65799;SDS011;52544;48.116;11.660;2022-10-29T03:08:06;9.43;;;2.42;;
65799;SDS011;52544;48.116;11.660;2022-10-29T03:10:32;9.40;;;2.70;;
65799;SDS011;52544;48.116;11.660;2022-10-29T03:12:58;7.32;;;2.55;;
65799;SDS011;52544;48.116;11.660;2022-10-29T03:15:23;10.77;;;2.33;;
65799;SDS011;52544;48.116;11.660;2022-10-29T03:17:48;9.45;;;2.40;;
65799;SDS011;52544;48.116;11.660;2022-10-29T03:20:14;8.65;;;2.88;;
65799;SDS011;52544;48.116;11.660;2022-10-29T03:22:39;7.82;;;2.20;;
65799;SDS011;52544;48.116;11.660;2022-10-29T03:25:05;8.85;;;2.08;;
65799;SDS011;52544;48.116;11.660;2022-10-29T03:27:31;9.48;;;2.17;;
65799;SDS011;52544;48.116;11.660;2022-10-29T03:29:56;11.88;;;2.60;;
65799;SDS011;52544;48.116;11.660;2022-10-29T03:32:21;8.63;;;2.47;;
65799;SDS011;52544;48.116;11.660;2022-10-29T03:34:47;6.97;;;2.50;;
65799;SDS011;52544;48.116;11.660;2022-10-29T03:37:12;11.38;;;2.40;;
65799;SDS011;52544;48.116;11.660;2022-10-29T03:39:37;10.80;;;2.22;;
65799;SDS011;52544;48.116;11.660;2022-10-29T03:42:03;8.75;;;2.83;;
65799;SDS011;52544;48.116;11.660;2022-10-29T03:44:28;12.88;;;2.60;;
65799;SDS011;52544;48.116;11.660;2022-10-29T03:46:54;9.13;;;2.38;;
65799;SDS011;52544;48.116;11.660;2022-10-29T03:49:19;14.75;;;2.60;;
65799;SDS011;52544;48.116;11.660;2022-10-29T03:51:44;12.23;;;2.20;;
65799;SDS011;52544;48.116;11.660;2022-10-29T03:54:10;9.38;;;2.60;;
65799;SDS011;52544;48.116;11.660;2022-10-29T03:56:35;6.38;;;2.15;;
65799;SDS011;52544;48.116;11.660;2022-10-29T03:59:01;14.77;;;2.42;;
65799;SDS011;52544;48.116;11.660;2022-10-29T04:01:26;11.60;;;2.28;;
65799;SDS011;52544;48.116;11.660;2022-10-29T04:03:52;10.82;;;2.58;;
65799;SDS011;52544;48.116;11.660;2022-10-29T04:06:17;12.15;;;2.33;;
65799;SDS011;52544;48.116;11.660;2022-10-29T04:08:42;9.40;;;2.90;;
65799;SDS011;52544;48.116;11.660;2022-10-29T04:11:11;6.47;;;2.42;;
65799;SDS011;52544;48.116;11.660;2022-10-29T04:13:37;7.60;;;2.10;;
65799;SDS011;52544;48.116;11.660;2022-10-29T04:16:03;10.57;;;2.35;;
65799;SDS011;52544;48.116;11.660;2022-10-29T04:18:28;12.35;;;2.20;;
65799;SDS011;52544;48.116;11.660;2022-10-29T04:20:57;14.02;;;2.72;;
65799;SDS011;52544;48.116;11.660;2022-10-29T04:23:24;12.70;;;2.22;;
65799;SDS011;52544;48.116;11.660;2022-10-29T04:25:53;11.10;;;2.42;;
65799;SDS011;52544;48.116;11.660;2022-10-29T04:28:20;9.25;;;2.50;;
65799;SDS011;52544;48.116;11.660;2022-10-29T04:30:46;12.38;;;2.80;;
65799;SDS011;52544;48.116;11.660;2022-10-29T04:33:11;15.88;;;2.72;;
65799;SDS011;52544;48.116;11.660;2022-10-29T04:35:36;10.65;;;2.30;;
65799;SDS011;52544;48.116;11.660;2022-10-29T04:38:11;8.45;;;2.03;;
65799;SDS011;52544;48.116;11.660;2022-10-29T04:40:37;9.93;;;2.20;;
65799;SDS011;52544;48.116;11.660;2022-10-29T04:43:02;9.02;;;2.22;;
65799;SDS011;52544;48.116;11.660;2022-10-29T04:45:28;6.35;;;1.70;;
65799;SDS011;52544;48.116;11.660;2022-10-29T04:47:57;11.70;;;2.47;;
65799;SDS011;52544;48.116;11.660;2022-10-29T04:50:23;9.80;;;2.67;;
65799;SDS011;52544;48.116;11.660;2022-10-29T04:52:49;13.77;;;2.25;;
65799;SDS011;52544;48.116;11.660;2022-10-29T04:55:14;5.28;;;2.08;;
65799;SDS011;52544;48.116;11.660;2022-10-29T04:57:39;6.85;;;2.17;;
65799;SDS011;52544;48.116;11.660;2022-10-29T05:00:05;8.27;;;2.13;;
65799;SDS011;52544;48.116;11.660;2022-10-29T05:02:31;10.80;;;2.38;;
65799;SDS011;52544;48.116;11.660;2022-10-29T05:04:56;3.78;;;1.73;;
65799;SDS011;52544;48.116;11.660;2022-10-29T05:07:21;9.30;;;2.58;;
65799;SDS011;52544;48.116;11.660;2022-10-29T05:09:47;17.83;;;2.58;;
65799;SDS011;52544;48.116;11.660;2022-10-29T05:12:12;6.97;;;2.20;;
65799;SDS011;52544;48.116;11.660;2022-10-29T05:14:37;17.63;;;2.53;;
65799;SDS011;52544;48.116;11.660;2022-10-29T05:17:03;10.00;;;2.05;;
65799;SDS011;52544;48.116;11.660;2022-10-29T05:19:28;13.02;;;2.28;;
65799;SDS011;52544;48.116;11.660;2022-10-29T05:21:53;13.25;;;2.35;;
65799;SDS011;52544;48.116;11.660;2022-10-29T05:24:18;11.18;;;2.13;;
65799;SDS011;52544;48.116;11.660;2022-10-29T05:26:44;9.13;;;2.33;;
65799;SDS011;52544;48.116;11.660;2022-10-29T05:29:09;10.13;;;2.50;;
65799;SDS011;52544;48.116;11.660;2022-10-29T05:31:34;8.60;;;2.50;;
65799;SDS011;52544;48.116;11.660;2022-10-29T05:34:00;11.45;;;2.13;;
65799;SDS011;52544;48.116;11.660;2022-10-29T05:36:25;8.20;;;2.10;;
65799;SDS011;52544;48.116;11.660;2022-10-29T05:38:51;9.90;;;2.55;;
65799;SDS011;52544;48.116;11.660;2022-10-29T05:41:16;8.15;;;2.08;;
65799;SDS011;52544;48.116;11.660;2022-10-29T05:43:41;10.20;;;2.30;;
65799;SDS011;52544;48.116;11.660;2022-10-29T05:46:07;9.38;;;2.30;;
65799;SDS011;52544;48.116;11.660;2022-10-29T05:48:32;13.13;;;2.00;;
65799;SDS011;52544;48.116;11.660;2022-10-29T05:50:57;7.50;;;2.88;;
65799;SDS011;52544;48.116;11.660;2022-10-29T05:53:23;12.18;;;2.10;;
65799;SDS011;52544;48.116;11.660;2022-10-29T05:55:48;12.98;;;2.65;;
65799;SDS011;52544;48.116;11.660;2022-10-29T05:58:14;10.52;;;1.92;;
65799;SDS011;52544;48.116;11.660;2022-10-29T06:00:43;13.02;;;2.17;;
65799;SDS011;52544;48.116;11.660;2022-10-29T06:03:13;8.73;;;2.58;;
65799;SDS011;52544;48.116;11.660;2022-10-29T06:05:40;11.68;;;2.28;;
65799;SDS011;52544;48.116;11.660;2022-10-29T06:08:06;9.95;;;2.65;;
65799;SDS011;52544;48.116;11.660;2022-10-29T06:10:32;24.60;;;2.60;;
65799;SDS011;52544;48.116;11.660;2022-10-29T06:12:57;8.63;;;2.40;;
65799;SDS011;52544;48.116;11.660;2022-10-29T06:15:23;8.93;;;2.35;;
65799;SDS011;52544;48.116;11.660;2022-10-29T06:17:48;12.05;;;2.75;;
65799;SDS011;52544;48.116;11.660;2022-10-29T06:20:15;6.15;;;2.30;;
65799;SDS011;52544;48.116;11.660;2022-10-29T06:22:43;14.40;;;2.80;;
65799;SDS011;52544;48.116;11.660;2022-10-29T06:25:08;9.82;;;2.75;;
65799;SDS011;52544;48.116;11.660;2022-10-29T06:27:34;9.88;;;2.65;;
65799;SDS011;52544;48.116;11.660;2022-10-29T06:30:00;9.77;;;2.78;;
65799;SDS011;52544;48.116;11.660;2022-10-29T06:32:25;11.25;;;2.63;;
65799;SDS011;52544;48.116;11.660;2022-10-29T06:34:51;6.97;;;2.85;;
65799;SDS011;52544;48.116;11.660;2022-10-29T06:37:16;10.65;;;2.35;;
65799;SDS011;52544;48.116;11.660;2022-10-29T06:39:41;6.32;;;2.50;;
65799;SDS011;52544;48.116;11.660;2022-10-29T06:42:07;7.90;;;2.63;;
65799;SDS011;52544;48.116;11.660;2022-10-29T06:44:32;12.32;;;3.08;;
65799;SDS011;52544;48.116;11.660;2022-10-29T06:46:57;7.78;;;2.45;;
65799;SDS011;52544;48.116;11.660;2022-10-29T06:49:23;6.63;;;2.55;;
65799;SDS011;52544;48.116;11.660;2022-10-29T06:51:48;7.35;;;2.13;;
65799;SDS011;52544;48.116;11.660;2022-10-29T06:54:13;9.38;;;2.25;;
65799;SDS011;52544;48.116;11.660;2022-10-29T06:56:39;7.32;;;2.30;;
65799;SDS011;52544;48.116;11.660;2022-10-29T06:59:04;10.75;;;2.70;;
65799;SDS011;52544;48.116;11.660;2022-10-29T07:01:30;11.63;;;2.67;;
65799;SDS011;52544;48.116;11.660;2022-10-29T07:03:57;8.95;;;2.30;;
65799;SDS011;52544;48.116;11.660;2022-10-29T07:06:23;11.55;;;2.17;;
65799;SDS011;52544;48.116;11.660;2022-10-29T07:08:48;12.63;;;2.63;;
65799;SDS011;52544;48.116;11.660;2022-10-29T07:11:14;6.15;;;2.53;;
65799;SDS011;52544;48.116;11.660;2022-10-29T07:13:40;10.70;;;2.70;;
65799;SDS011;52544;48.116;11.660;2022-10-29T07:16:05;8.45;;;2.50;;
65799;SDS011;52544;48.116;11.660;2022-10-29T07:18:31;9.50;;;2.42;;
65799;SDS011;52544;48.116;11.660;2022-10-29T07:20:57;13.05;;;2.40;;
65799;SDS011;52544;48.116;11.660;2022-10-29T07:23:22;9.23;;;2.03;;
65799;SDS011;52544;48.116;11.660;2022-10-29T07:25:50;10.13;;;2.50;;
65799;SDS011;52544;48.116;11.660;2022-10-29T07:28:17;8.65;;;3.05;;
65799;SDS011;52544;48.116;11.660;2022-10-29T07:30:49;14.02;;;5.35;;
65799;SDS011;52544;48.116;11.660;2022-10-29T07:33:15;11.20;;;2.70;;
65799;SDS011;52544;48.116;11.660;2022-10-29T07:35:41;13.73;;;2.72;;
65799;SDS011;52544;48.116;11.660;2022-10-29T07:38:08;14.77;;;3.03;;
65799;SDS011;52544;48.116;11.660;2022-10-29T07:40:34;18.90;;;2.70;;
65799;SDS011;52544;48.116;11.660;2022-10-29T07:42:59;15.45;;;3.00;;
65799;SDS011;52544;48.116;11.660;2022-10-29T07:45:25;7.85;;;2.50;;
65799;SDS011;52544;48.116;11.660;2022-10-29T07:47:58;10.40;;;2.33;;
65799;SDS011;52544;48.116;11.660;2022-10-29T07:50:24;15.60;;;2.72;;
65799;SDS011;52544;48.116;11.660;2022-10-29T07:52:50;9.02;;;2.47;;
65799;SDS011;52544;48.116;11.660;2022-10-29T07:55:15;7.72;;;1.90;;
65799;SDS011;52544;48.116;11.660;2022-10-29T07:57:40;10.80;;;2.50;;
65799;SDS011;52544;48.116;11.660;2022-10-29T08:00:06;12.93;;;2.50;;
65799;SDS011;52544;48.116;11.660;2022-10-29T08:02:32;10.88;;;2.88;;
65799;SDS011;52544;48.116;11.660;2022-10-29T08:04:57;8.05;;;2.25;;
65799;SDS011;52544;48.116;11.660;2022-10-29T08:07:22;12.73;;;2.83;;
65799;SDS011;52544;48.116;11.660;2022-10-29T08:09:48;8.52;;;2.90;;
65799;SDS011;52544;48.116;11.660;2022-10-29T08:12:13;11.32;;;2.40;;
65799;SDS011;52544;48.116;11.660;2022-10-29T08:14:38;15.27;;;3.10;;
65799;SDS011;52544;48.116;11.660;2022-10-29T08:17:04;14.85;;;3.45;;
65799;SDS011;52544;48.116;11.660;2022-10-29T08:19:29;15.48;;;2.70;;
65799;SDS011;52544;48.116;11.660;2022-10-29T08:21:55;13.05;;;3.10;;
65799;SDS011;52544;48.116;11.660;2022-10-29T08:24:20;11.50;;;3.10;;
65799;SDS011;52544;48.116;11.660;2022-10-29T08:26:46;19.35;;;2.72;;
65799;SDS011;52544;48.116;11.660;2022-10-29T08:29:11;10.50;;;2.15;;
65799;SDS011;52544;48.116;11.660;2022-10-29T08:31:37;6.93;;;2.75;;
65799;SDS011;52544;48.116;11.660;2022-10-29T08:34:02;12.75;;;2.28;;
65799;SDS011;52544;48.116;11.660;2022-10-29T08:36:27;8.02;;;2.05;;
65799;SDS011;52544;48.116;11.660;2022-10-29T08:38:53;8.10;;;2.45;;
65799;SDS011;52544;48.116;11.660;2022-10-29T08:44:48;9.65;;;2.72;;
65799;SDS011;52544;48.116;11.660;2022-10-29T08:49:45;10.70;;;2.53;;
65799;SDS011;52544;48.116;11.660;2022-10-29T08:52:21;15.63;;;2.75;;
65799;SDS011;52544;48.116;11.660;2022-10-29T08:54:52;7.22;;;2.83;;
65799;SDS011;52544;48.116;11.660;2022-10-29T08:57:23;12.27;;;2.10;;
65799;SDS011;52544;48.116;11.660;2022-10-29T09:02:56;7.90;;;2.28;;
65799;SDS011;52544;48.116;11.660;2022-10-29T09:05:24;9.30;;;2.30;;
65799;SDS011;52544;48.116;11.660;2022-10-29T09:08:14;14.10;;;2.92;;
65799;SDS011;52544;48.116;11.660;2022-10-29T09:10:52;10.57;;;2.30;;
65799;SDS011;52544;48.116;11.660;2022-10-29T09:19:03;10.73;;;2.20;;
65799;SDS011;52544;48.116;11.660;2022-10-29T09:21:44;12.88;;;2.28;;
65799;SDS011;52544;48.116;11.660;2022-10-29T09:24:32;12.20;;;2.25;;
65799;SDS011;52544;48.116;11.660;2022-10-29T09:27:19;11.82;;;2.92;;
65799;SDS011;52544;48.116;11.660;2022-10-29T09:32:34;9.20;;;2.15;;
65799;SDS011;52544;48.116;11.660;2022-10-29T09:35:09;11.18;;;2.38;;
65799;SDS011;52544;48.116;11.660;2022-10-29T09:37:44;13.60;;;2.50;;
65799;SDS011;52544;48.116;11.660;2022-10-29T09:42:56;10.43;;;2.47;;
65799;SDS011;52544;48.116;11.660;2022-10-29T09:45:26;12.60;;;2.75;;
65799;SDS011;52544;48.116;11.660;2022-10-29T09:48:05;13.38;;;2.47;;
65799;SDS011;52544;48.116;11.660;2022-10-29T09:53:18;13.50;;;2.65;;
65799;SDS011;52544;48.116;11.660;2022-10-29T09:55:44;10.23;;;2.83;;
65799;SDS011;52544;48.116;11.660;2022-10-29T09:58:22;14.68;;;2.90;;
65799;SDS011;52544;48.116;11.660;2022-10-29T10:00:49;12.80;;;2.83;;
65799;SDS011;52544;48.116;11.660;2022-10-29T10:03:20;10.07;;;2.65;;
65799;SDS011;52544;48.116;11.660;2022-10-29T10:08:30;15.50;;;3.00;;
65799;SDS011;52544;48.116;11.660;2022-10-29T10:10:58;20.23;;;3.08;;
65799;SDS011;52544;48.116;11.660;2022-10-29T10:13:26;13.88;;;3.08;;
65799;SDS011;52544;48.116;11.660;2022-10-29T10:15:54;10.40;;;3.03;;
65799;SDS011;52544;48.116;11.660;2022-10-29T10:18:23;12.95;;;3.00;;
65799;SDS011;52544;48.116;11.660;2022-10-29T10:21:03;10.70;;;2.90;;
65799;SDS011;52544;48.116;11.660;2022-10-29T10:23:46;11.77;;;3.47;;
65799;SDS011;52544;48.116;11.660;2022-10-29T10:31:38;7.82;;;2.28;;
65799;SDS011;52544;48.116;11.660;2022-10-29T10:34:13;11.73;;;2.63;;
65799;SDS011;52544;48.116;11.660;2022-10-29T10:36:41;10.32;;;2.70;;
65799;SDS011;52544;48.116;11.660;2022-10-29T10:39:16;8.88;;;2.42;;
65799;SDS011;52544;48.116;11.660;2022-10-29T10:42:50;13.02;;;2.35;;
65799;SDS011;52544;48.116;11.660;2022-10-29T10:47:40;9.27;;;2.17;;
65799;SDS011;52544;48.116;11.660;2022-10-29T10:50:17;8.85;;;2.08;;
65799;SDS011;52544;48.116;11.660;2022-10-29T10:52:46;7.78;;;2.28;;
65799;SDS011;52544;48.116;11.660;2022-10-29T10:58:12;13.38;;;3.20;;
65799;SDS011;52544;48.116;11.660;2022-10-29T11:00:45;17.75;;;6.00;;
65799;SDS011;52544;48.116;11.660;2022-10-29T11:03:16;14.52;;;2.90;;
65799;SDS011;52544;48.116;11.660;2022-10-29T11:05:53;8.65;;;2.47;;
65799;SDS011;52544;48.116;11.660;2022-10-29T11:08:27;12.52;;;2.60;;
65799;SDS011;52544;48.116;11.660;2022-10-29T11:11:03;10.38;;;2.60;;
65799;SDS011;52544;48.116;11.660;2022-10-29T11:13:34;14.80;;;2.50;;
65799;SDS011;52544;48.116;11.660;2022-10-29T11:16:24;15.13;;;2.53;;
65799;SDS011;52544;48.116;11.660;2022-10-29T11:18:54;13.15;;;2.58;;
65799;SDS011;52544;48.116;11.660;2022-10-29T11:21:31;11.73;;;2.30;;
65799;SDS011;52544;48.116;11.660;2022-10-29T11:32:45;19.25;;;4.65;;
65799;SDS011;52544;48.116;11.660;2022-10-29T11:35:28;14.23;;;2.65;;
65799;SDS011;52544;48.116;11.660;2022-10-29T11:38:03;12.68;;;2.38;;
65799;SDS011;52544;48.116;11.660;2022-10-29T11:40:47;17.58;;;3.47;;
65799;SDS011;52544;48.116;11.660;2022-10-29T11:43:20;6.53;;;2.20;;
65799;SDS011;52544;48.116;11.660;2022-10-29T11:48:27;19.02;;;2.55;;
65799;SDS011;52544;48.116;11.660;2022-10-29T11:54:01;9.02;;;2.38;;
65799;SDS011;52544;48.116;11.660;2022-10-29T11:59:46;11.63;;;2.42;;
65799;SDS011;52544;48.116;11.660;2022-10-29T12:02:47;13.00;;;2.38;;
65799;SDS011;52544;48.116;11.660;2022-10-29T12:05:39;16.25;;;3.30;;
65799;SDS011;52544;48.116;11.660;2022-10-29T12:10:49;8.55;;;2.50;;
65799;SDS011;52544;48.116;11.660;2022-10-29T12:25:02;10.07;;;2.05;;
65799;SDS011;52544;48.116;11.660;2022-10-29T12:27:25;11.10;;;2.78;;
65799;SDS011;52544;48.116;11.660;2022-10-29T12:35:31;10.77;;;2.72;;
65799;SDS011;52544;48.116;11.660;2022-10-29T12:40:43;9.80;;;2.40;;
65799;SDS011;52544;48.116;11.660;2022-10-29T12:43:22;14.13;;;2.65;;
65799;SDS011;52544;48.116;11.660;2022-10-29T12:59:39;13.80;;;2.72;;
65799;SDS011;52544;48.116;11.660;2022-10-29T13:05:11;16.75;;;2.67;;
65799;SDS011;52544;48.116;11.660;2022-10-29T13:12:59;13.65;;;2.97;;
65799;SDS011;52544;48.116;11.660;2022-10-29T13:15:34;12.63;;;2.45;;
65799;SDS011;52544;48.116;11.660;2022-10-29T13:20:37;15.05;;;2.67;;
65799;SDS011;52544;48.116;11.660;2022-10-29T13:25:51;8.15;;;2.50;;
65799;SDS011;52544;48.116;11.660;2022-10-29T13:30:43;9.93;;;2.77;;
65799;SDS011;52544;48.116;11.660;2022-10-29T13:35:51;16.17;;;2.88;;
65799;SDS011;52544;48.116;11.660;2022-10-29T13:44:22;10.43;;;2.83;;
65799;SDS011;52544;48.116;11.660;2022-10-29T13:46:46;15.38;;;3.17;;
65799;SDS011;52544;48.116;11.660;2022-10-29T13:56:59;12.20;;;3.30;;
65799;SDS011;52544;48.116;11.660;2022-10-29T13:59:40;20.50;;;3.03;;
65799;SDS011;52544;48.116;11.660;2022-10-29T14:02:23;14.15;;;2.78;;
65799;SDS011;52544;48.116;11.660;2022-10-29T14:08:02;16.63;;;2.88;;
65799;SDS011;52544;48.116;11.660;2022-10-29T14:18:27;13.27;;;2.92;;
65799;SDS011;52544;48.116;11.660;2022-10-29T14:20:55;14.18;;;3.10;;
65799;SDS011;52544;48.116;11.660;2022-10-29T14:23:23;11.13;;;2.83;;
65799;SDS011;52544;48.116;11.660;2022-10-29T14:25:50;13.05;;;3.00;;
65799;SDS011;52544;48.116;11.660;2022-10-29T14:28:18;13.90;;;2.88;;
65799;SDS011;52544;48.116;11.660;2022-10-29T14:31:04;13.88;;;2.55;;
65799;SDS011;52544;48.116;11.660;2022-10-29T14:33:34;13.82;;;3.20;;
65799;SDS011;52544;48.116;11.660;2022-10-29T14:38:54;11.80;;;3.17;;
65799;SDS011;52544;48.116;11.660;2022-10-29T14:41:23;14.43;;;2.95;;
65799;SDS011;52544;48.116;11.660;2022-10-29T14:43:51;15.75;;;2.70;;
65799;SDS011;52544;48.116;11.660;2022-10-29T14:46:40;10.80;;;3.17;;
65799;SDS011;52544;48.116;11.660;2022-10-29T14:49:17;16.52;;;3.47;;
65799;SDS011;52544;48.116;11.660;2022-10-29T14:51:52;15.23;;;2.70;;
65799;SDS011;52544;48.116;11.660;2022-10-29T14:54:22;18.98;;;3.25;;
65799;SDS011;52544;48.116;11.660;2022-10-29T14:56:54;15.38;;;2.75;;
65799;SDS011;52544;48.116;11.660;2022-10-29T14:59:27;13.75;;;2.72;;
65799;SDS011;52544;48.116;11.660;2022-10-29T15:01:56;12.52;;;2.97;;
65799;SDS011;52544;48.116;11.660;2022-10-29T15:04:25;16.38;;;3.65;;
65799;SDS011;52544;48.116;11.660;2022-10-29T15:09:47;11.60;;;2.55;;
65799;SDS011;52544;48.116;11.660;2022-10-29T15:12:33;12.32;;;2.67;;
65799;SDS011;52544;48.116;11.660;2022-10-29T15:15:22;12.98;;;2.67;;
65799;SDS011;52544;48.116;11.660;2022-10-29T15:17:51;10.18;;;2.78;;
65799;SDS011;52544;48.116;11.660;2022-10-29T15:20:22;10.43;;;2.55;;
65799;SDS011;52544;48.116;11.660;2022-10-29T15:22:53;9.38;;;2.92;;
65799;SDS011;52544;48.116;11.660;2022-10-29T15:25:26;9.82;;;2.25;;
65799;SDS011;52544;48.116;11.660;2022-10-29T15:27:55;10.77;;;3.13;;
65799;SDS011;52544;48.116;11.660;2022-10-29T15:30:22;7.43;;;2.42;;
65799;SDS011;52544;48.116;11.660;2022-10-29T15:32:56;13.70;;;2.60;;
65799;SDS011;52544;48.116;11.660;2022-10-29T15:35:23;12.00;;;2.33;;
65799;SDS011;52544;48.116;11.660;2022-10-29T15:37:52;11.00;;;2.72;;
65799;SDS011;52544;48.116;11.660;2022-10-29T15:40:23;9.75;;;2.47;;
65799;SDS011;52544;48.116;11.660;2022-10-29T15:42:50;7.43;;;2.80;;
65799;SDS011;52544;48.116;11.660;2022-10-29T15:45:18;11.75;;;2.72;;
65799;SDS011;52544;48.116;11.660;2022-10-29T15:47:50;5.80;;;2.38;;
65799;SDS011;52544;48.116;11.660;2022-10-29T15:50:21;15.13;;;3.30;;
65799;SDS011;52544;48.116;11.660;2022-10-29T15:55:33;13.57;;;2.80;;
65799;SDS011;52544;48.116;11.660;2022-10-29T15:58:05;11.98;;;3.53;;
65799;SDS011;52544;48.116;11.660;2022-10-29T16:00:42;14.77;;;3.63;;
65799;SDS011;52544;48.116;11.660;2022-10-29T16:03:44;9.95;;;2.92;;
65799;SDS011;52544;48.116;11.660;2022-10-29T16:06:11;8.88;;;3.35;;
65799;SDS011;52544;48.116;11.660;2022-10-29T16:08:44;10.52;;;3.28;;
65799;SDS011;52544;48.116;11.660;2022-10-29T16:11:14;17.58;;;4.22;;
65799;SDS011;52544;48.116;11.660;2022-10-29T16:13:44;12.70;;;3.80;;
65799;SDS011;52544;48.116;11.660;2022-10-29T16:16:20;9.80;;;3.35;;
65799;SDS011;52544;48.116;11.660;2022-10-29T16:18:47;14.68;;;3.17;;
65799;SDS011;52544;48.116;11.660;2022-10-29T16:21:21;11.70;;;3.78;;
65799;SDS011;52544;48.116;11.660;2022-10-29T16:23:47;9.43;;;3.22;;
65799;SDS011;52544;48.116;11.660;2022-10-29T16:26:14;13.63;;;3.50;;
65799;SDS011;52544;48.116;11.660;2022-10-29T16:28:41;11.32;;;3.63;;
65799;SDS011;52544;48.116;11.660;2022-10-29T16:31:17;11.43;;;3.70;;
65799;SDS011;52544;48.116;11.660;2022-10-29T16:33:45;15.93;;;3.88;;
65799;SDS011;52544;48.116;11.660;2022-10-29T16:36:15;18.67;;;3.95;;
65799;SDS011;52544;48.116;11.660;2022-10-29T16:38:41;13.30;;;3.58;;
65799;SDS011;52544;48.116;11.660;2022-10-29T16:41:14;18.35;;;4.40;;
65799;SDS011;52544;48.116;11.660;2022-10-29T16:43:41;14.63;;;4.03;;
65799;SDS011;52544;48.116;11.660;2022-10-29T16:46:07;15.55;;;4.13;;
65799;SDS011;52544;48.116;11.660;2022-10-29T16:48:32;17.88;;;4.53;;
65799;SDS011;52544;48.116;11.660;2022-10-29T16:50:58;22.67;;;4.15;;
65799;SDS011;52544;48.116;11.660;2022-10-29T16:53:23;13.07;;;3.72;;
65799;SDS011;52544;48.116;11.660;2022-10-29T16:55:49;18.08;;;4.75;;
65799;SDS011;52544;48.116;11.660;2022-10-29T16:58:14;14.20;;;4.30;;
65799;SDS011;52544;48.116;11.660;2022-10-29T17:00:43;11.05;;;5.43;;
65799;SDS011;52544;48.116;11.660;2022-10-29T17:03:10;15.38;;;6.10;;
65799;SDS011;52544;48.116;11.660;2022-10-29T17:05:37;23.30;;;8.07;;
65799;SDS011;52544;48.116;11.660;2022-10-29T17:08:04;18.52;;;8.23;;
65799;SDS011;52544;48.116;11.660;2022-10-29T17:10:30;18.65;;;7.45;;
65799;SDS011;52544;48.116;11.660;2022-10-29T17:12:56;18.42;;;6.60;;
65799;SDS011;52544;48.116;11.660;2022-10-29T17:15:22;26.85;;;6.22;;
65799;SDS011;52544;48.116;11.660;2022-10-29T17:17:47;15.68;;;6.30;;
65799;SDS011;52544;48.116;11.660;2022-10-29T17:20:13;13.63;;;4.75;;
65799;SDS011;52544;48.116;11.660;2022-10-29T17:22:38;13.25;;;5.03;;
65799;SDS011;52544;48.116;11.660;2022-10-29T17:25:04;21.13;;;5.85;;
65799;SDS011;52544;48.116;11.660;2022-10-29T17:27:29;18.98;;;5.38;;